Time;durP1;ratioP1;P1;durP2;ratioP2;P2;SDS_P1;SDS_P2;PMS_P1;PMS_P2;Temp;Humidity;BMP_temperature;BMP_pressure;BME280_temperature;BME280_humidity;BME280_pressure;Samples;Min_cycle;Max_cycle;Signal;HPM_P1;HPM_P2
2021/03/30 00:02:09;;;;;;;6.60;3.73;;;;;;;8.31;74.75;101775.61;639913;222;24865;-75
2021/03/30 00:04:37;;;;;;;5.93;3.80;;;;;;;7.99;75.39;101776.20;640537;221;24830;-76
2021/03/30 00:07:05;;;;;;;6.57;4.10;;;;;;;8.69;73.97;101776.34;637404;221;32657;-75
2021/03/30 00:09:33;;;;;;;7.50;4.00;;;;;;;8.14;75.41;101771.03;635285;225;24827;-76
2021/03/30 00:12:02;;;;;;;8.03;4.13;;;;;;;7.84;76.44;101778.84;630279;226;24816;-76
2021/03/30 00:14:28;;;;;;;4.27;3.70;;;;;;;7.72;77.42;101780.39;625093;226;24974;-75
2021/03/30 00:16:56;;;;;;;5.73;4.10;;;;;;;7.51;78.57;101783.75;625575;226;31339;-76
2021/03/30 00:19:24;;;;;;;8.13;4.23;;;;;;;7.35;79.21;101787.66;619250;230;24853;-75
2021/03/30 00:21:52;;;;;;;6.13;4.53;;;;;;;7.43;77.96;101783.33;618775;231;24867;-76
2021/03/30 00:24:20;;;;;;;8.90;4.00;;;;;;;7.61;78.82;101782.78;617037;230;24883;-76
2021/03/30 00:26:48;;;;;;;6.47;4.30;;;;;;;7.83;77.83;101777.19;626995;226;24844;-76
2021/03/30 00:29:16;;;;;;;8.30;4.60;;;;;;;7.45;78.07;101769.84;625952;228;24836;-76
2021/03/30 00:31:44;;;;;;;6.57;4.60;;;;;;;7.14;79.93;101778.02;619455;230;24902;-75
2021/03/30 00:34:11;;;;;;;7.40;3.80;;;;;;;7.58;78.51;101777.75;610075;230;33011;-76
2021/03/30 00:36:39;;;;;;;7.10;4.00;;;;;;;7.19;80.49;101775.66;628005;225;23711;-75
2021/03/30 00:39:08;;;;;;;5.07;3.23;;;;;;;7.20;80.47;101776.03;625484;227;24835;-76
2021/03/30 00:41:41;;;;;;;7.77;3.73;;;;;;;7.49;78.85;101771.36;642639;221;24821;-76
2021/03/30 00:44:11;;;;;;;8.23;4.33;;;;;;;7.40;78.78;101768.81;642191;221;24790;-75
2021/03/30 00:46:39;;;;;;;5.83;3.73;;;;;;;7.34;79.14;101774.81;619851;230;24868;-75
2021/03/30 00:49:07;;;;;;;5.50;4.00;;;;;;;7.30;78.89;101769.41;621249;230;24851;-76
2021/03/30 00:51:35;;;;;;;6.50;3.70;;;;;;;7.48;76.91;101757.20;628251;226;24824;-76
2021/03/30 00:54:03;;;;;;;9.57;4.30;;;;;;;7.16;78.01;101755.94;629062;226;24854;-76
2021/03/30 00:56:31;;;;;;;7.77;3.80;;;;;;;7.09;77.65;101755.92;614271;231;24883;-75
2021/03/30 00:59:00;;;;;;;5.73;3.33;;;;;;;6.75;81.55;101764.66;618358;229;24894;-76
2021/03/30 01:01:28;;;;;;;7.37;3.43;;;;;;;7.03;80.95;101773.05;625948;226;28052;-75
2021/03/30 01:03:56;;;;;;;3.63;3.33;;;;;;;7.34;79.94;101774.34;622247;229;24907;-75
2021/03/30 01:06:24;;;;;;;4.50;3.70;;;;;;;7.29;79.68;101763.86;626368;226;25213;-76
2021/03/30 01:09:00;;;;;;;7.13;3.50;;;;;;;7.20;79.32;101763.09;620142;230;24906;-75
2021/03/30 01:11:33;;;;;;;6.83;3.50;;;;;;;6.92;78.69;101755.55;634732;225;24822;-76
2021/03/30 01:14:06;;;;;;;8.23;4.30;;;;;;;6.93;80.46;101766.73;632358;226;24832;-75
2021/03/30 01:16:33;;;;;;;10.50;4.17;;;;;;;6.93;80.01;101760.27;628514;226;24848;-75
2021/03/30 01:19:02;;;;;;;5.53;3.70;;;;;;;6.46;80.88;101767.03;631632;226;24959;-76
2021/03/30 01:21:37;;;;;;;4.67;3.83;;;;;;;6.44;80.48;101770.62;629852;225;24850;-76
2021/03/30 01:24:08;;;;;;;4.10;3.50;;;;;;;6.03;82.49;101775.32;616347;230;24953;-76
2021/03/30 01:26:49;;;;;;;5.60;3.40;;;;;;;5.82;84.82;101779.33;630514;225;24888;-75
2021/03/30 01:29:20;;;;;;;9.10;4.83;;;;;;;5.91;85.91;101785.38;633292;225;27096;-76
2021/03/30 01:31:48;;;;;;;4.17;3.60;;;;;;;6.14;85.22;101783.37;631702;225;24852;-76
2021/03/30 01:34:16;;;;;;;3.77;3.13;;;;;;;6.03;84.82;101779.20;619143;230;24921;-75
2021/03/30 01:36:44;;;;;;;5.70;3.30;;;;;;;6.10;84.02;101768.95;615333;230;27027;-76
2021/03/30 01:39:12;;;;;;;6.80;4.13;;;;;;;6.24;83.27;101771.66;626617;226;24821;-76
2021/03/30 01:41:40;;;;;;;4.03;3.50;;;;;;;6.23;83.44;101770.00;615962;230;24868;-76
2021/03/30 01:44:08;;;;;;;5.50;4.00;;;;;;;6.42;83.11;101766.83;624568;226;24867;-76
2021/03/30 01:46:36;;;;;;;3.83;3.40;;;;;;;6.29;81.97;101761.92;618731;229;27004;-75
2021/03/30 01:49:05;;;;;;;6.10;3.63;;;;;;;6.25;82.40;101770.29;644951;221;24806;-76
2021/03/30 01:51:32;;;;;;;5.10;3.20;;;;;;;6.37;82.22;101774.00;642580;222;24789;-75
2021/03/30 01:54:00;;;;;;;4.10;3.43;;;;;;;6.48;81.52;101757.48;642458;222;24818;-76
2021/03/30 01:56:29;;;;;;;7.40;3.83;;;;;;;6.23;81.72;101754.50;644310;221;24796;-76
2021/03/30 01:58:56;;;;;;;5.60;3.80;;;;;;;6.44;80.21;101752.07;639031;221;24787;-75
2021/03/30 02:01:24;;;;;;;4.07;3.20;;;;;;;6.26;80.88;101750.45;637862;221;24802;-76
2021/03/30 02:03:52;;;;;;;6.60;4.17;;;;;;;6.18;81.75;101751.30;629664;226;24862;-76
2021/03/30 02:06:20;;;;;;;4.37;3.40;;;;;;;5.93;83.19;101756.44;628145;226;26003;-76
2021/03/30 02:08:48;;;;;;;6.70;3.67;;;;;;;6.68;80.69;101764.63;624084;226;32795;-76
2021/03/30 02:11:24;;;;;;;4.70;3.57;;;;;;;6.25;81.00;101758.66;628035;226;23696;-75
2021/03/30 02:13:54;;;;;;;5.77;3.77;;;;;;;6.21;81.55;101752.45;617350;230;24874;-76
2021/03/30 02:16:15;;;;;;;7.60;3.27;;;;;;;6.02;81.49;101754.28;644667;220;24801;-75
2021/03/30 02:18:44;;;;;;;6.10;3.47;;;;;;;5.85;82.44;101757.69;644471;220;24794;-76
2021/03/30 02:21:12;;;;;;;4.37;3.20;;;;;;;6.54;80.22;101748.55;638444;221;32737;-76
2021/03/30 02:23:40;;;;;;;4.10;3.57;;;;;;;6.17;80.91;101741.87;645659;221;23673;-76
2021/03/30 02:26:08;;;;;;;5.20;3.47;;;;;;;6.04;80.54;101742.95;645181;221;25192;-76
2021/03/30 02:28:42;;;;;;;5.07;3.57;;;;;;;5.79;81.29;101750.27;630167;226;27077;-76
2021/03/30 02:31:03;;;;;;;4.57;3.40;;;;;;;5.79;82.22;101754.97;639268;221;24845;-76
2021/03/30 02:33:31;;;;;;;4.47;3.20;;;;;;;5.80;81.63;101751.48;640015;221;24801;-76
2021/03/30 02:35:59;;;;;;;4.40;3.20;;;;;;;5.41;80.59;101741.81;638208;222;24855;-76
2021/03/30 02:38:27;;;;;;;4.97;3.60;;;;;;;6.04;80.27;101742.13;634626;221;32777;-76
2021/03/30 02:40:55;;;;;;;5.90;3.55;;;;;;;6.46;79.34;101737.31;627054;225;43653;-76
2021/03/30 02:43:23;;;;;;;6.63;3.30;;;;;;;5.99;80.50;101741.53;644443;221;23687;-75
2021/03/30 02:45:51;;;;;;;5.13;3.50;;;;;;;5.76;80.95;101744.77;627969;225;24822;-76
2021/03/30 02:48:19;;;;;;;5.27;3.17;;;;;;;5.79;80.91;101747.23;626123;227;24835;-75
2021/03/30 02:50:48;;;;;;;3.87;3.40;;;;;;;5.81;81.31;101755.72;628532;227;24852;-75
2021/03/30 02:53:16;;;;;;;3.87;3.10;;;;;;;5.74;81.69;101757.38;616690;230;24875;-76
2021/03/30 02:55:45;;;;;;;7.33;3.60;;;;;;;5.70;82.13;101756.70;625614;226;24849;-77
2021/03/30 02:58:12;;;;;;;4.23;3.23;;;;;;;5.48;81.99;101768.52;626252;227;24832;-76
2021/03/30 03:00:40;;;;;;;6.60;3.30;;;;;;;5.50;83.46;101770.59;624532;228;24839;-75
2021/03/30 03:03:10;;;;;;;4.73;3.47;;;;;;;5.69;82.95;101765.81;627392;227;24837;-75
2021/03/30 03:05:38;;;;;;;6.53;3.37;;;;;;;5.50;82.51;101762.02;628555;227;24855;-76
2021/03/30 03:08:06;;;;;;;5.97;3.20;;;;;;;5.50;82.98;101769.30;623705;229;24838;-75
2021/03/30 03:10:34;;;;;;;4.10;3.70;;;;;;;5.42;82.39;101770.11;642947;221;24785;-75
2021/03/30 03:13:02;;;;;;;4.13;3.53;;;;;;;5.27;82.54;101766.52;628841;226;24845;-76
2021/03/30 03:15:30;;;;;;;3.53;3.23;;;;;;;5.20;83.57;101778.47;614476;230;24905;-76
2021/03/30 03:17:59;;;;;;;3.60;3.10;;;;;;;5.23;84.09;101773.20;618291;230;24900;-76
2021/03/30 03:20:27;;;;;;;7.63;3.90;;;;;;;5.47;83.37;101773.30;638548;221;27979;-76
2021/03/30 03:22:55;;;;;;;4.73;3.80;;;;;;;5.30;83.56;101770.69;640267;221;26930;-76
2021/03/30 03:25:23;;;;;;;6.47;3.40;;;;;;;5.25;83.52;101767.05;634162;225;24861;-75
2021/03/30 03:27:50;;;;;;;5.70;4.10;;;;;;;5.23;83.73;101778.35;633747;225;24814;-76
2021/03/30 03:30:19;;;;;;;5.30;3.50;;;;;;;5.76;81.24;101771.88;622729;225;32772;-75
2021/03/30 03:32:47;;;;;;;3.13;2.67;;;;;;;4.98;82.72;101765.30;628544;226;25957;-77
2021/03/30 03:35:15;;;;;;;7.00;3.50;;;;;;;4.79;83.88;101775.25;626738;225;24903;-75
2021/03/30 03:37:44;;;;;;;4.37;3.20;;;;;;;5.47;82.88;101768.59;626568;225;32855;-76
2021/03/30 03:40:12;;;;;;;4.80;3.43;;;;;;;5.12;84.09;101769.83;640031;221;23665;-75
2021/03/30 03:42:40;;;;;;;5.43;3.13;;;;;;;5.10;83.28;101766.94;643406;221;25996;-75
2021/03/30 03:45:10;;;;;;;3.30;2.83;;;;;;;5.08;83.95;101772.63;643617;222;24790;-76
2021/03/30 03:47:38;;;;;;;4.47;3.90;;;;;;;4.87;84.47;101773.98;643804;222;24810;-76
2021/03/30 03:50:07;;;;;;;5.20;2.80;;;;;;;4.90;84.53;101780.73;648056;221;25039;-76
2021/03/30 03:52:35;;;;;;;5.80;3.83;;;;;;;4.88;84.36;101774.81;638042;222;24774;-75
2021/03/30 03:55:03;;;;;;;6.73;3.40;;;;;;;4.97;83.98;101769.25;647555;221;24764;-75
2021/03/30 03:57:31;;;;;;;5.53;3.10;;;;;;;5.55;82.45;101769.07;633154;222;32740;-75
2021/03/30 03:59:59;;;;;;;6.00;3.60;;;;;;;5.82;82.13;101762.55;635674;222;32697;-75
2021/03/30 04:02:27;;;;;;;6.67;3.50;;;;;;;5.47;82.89;101768.59;643792;221;23671;-76
2021/03/30 04:04:55;;;;;;;5.53;3.70;;;;;;;5.11;84.63;101778.92;640191;222;24795;-76
2021/03/30 04:07:23;;;;;;;6.67;3.50;;;;;;;5.20;84.20;101778.47;641532;221;25002;-75
2021/03/30 04:09:51;;;;;;;4.53;3.83;;;;;;;4.98;85.21;101786.38;618721;230;24906;-75
2021/03/30 04:12:19;;;;;;;5.20;3.20;;;;;;;5.56;83.01;101776.73;640833;221;32660;-75
2021/03/30 04:14:47;;;;;;;4.20;3.30;;;;;;;5.17;83.33;101778.17;643034;221;26835;-76
2021/03/30 04:17:15;;;;;;;4.10;3.03;;;;;;;4.93;83.64;101777.58;639735;222;24798;-75
2021/03/30 04:19:44;;;;;;;4.03;3.30;;;;;;;4.93;84.22;101779.33;639295;221;24793;-76
2021/03/30 04:22:13;;;;;;;5.73;4.00;;;;;;;5.31;83.02;101781.39;638313;221;32835;-76
2021/03/30 04:24:41;;;;;;;8.60;3.90;;;;;;;5.55;82.76;101778.09;638170;222;32781;-76
2021/03/30 04:27:09;;;;;;;7.00;3.50;;;;;;;5.17;83.86;101787.65;643745;221;23647;-76
2021/03/30 04:29:37;;;;;;;7.35;4.53;;;;;;;4.72;85.37;101794.84;634302;226;25399;-76
2021/03/30 04:32:06;;;;;;;5.23;3.73;;;;;;;4.75;85.85;101794.69;630281;226;25850;-77
2021/03/30 04:34:34;;;;;;;4.43;3.63;;;;;;;4.76;85.22;101795.07;618690;230;28093;-76
2021/03/30 04:37:02;;;;;;;5.00;3.60;;;;;;;4.65;84.17;101787.47;646373;221;24829;-77
2021/03/30 04:39:30;;;;;;;5.50;3.70;;;;;;;5.33;83.21;101773.95;634893;221;32640;-76
2021/03/30 04:41:58;;;;;;;4.90;3.90;;;;;;;4.88;84.31;101782.55;641909;221;23670;-76
2021/03/30 04:44:26;;;;;;;5.73;3.87;;;;;;;5.04;84.12;101779.64;640132;222;24790;-76
2021/03/30 04:46:54;;;;;;;5.03;3.98;;;;;;;5.36;82.52;101764.80;638661;221;32595;-76
2021/03/30 04:49:22;;;;;;;5.00;3.70;;;;;;;4.86;83.82;101777.46;645265;221;23677;-76
2021/03/30 04:51:50;;;;;;;9.33;3.33;;;;;;;4.67;84.28;101781.78;644096;221;24822;-76
2021/03/30 04:54:19;;;;;;;5.70;3.27;;;;;;;4.41;84.85;101790.66;640399;222;24864;-75
2021/03/30 04:56:47;;;;;;;12.80;3.83;;;;;;;4.23;84.85;101790.17;639483;221;25104;-76
2021/03/30 04:59:14;;;;;;;5.33;3.30;;;;;;;4.27;85.82;101800.72;639508;221;24792;-77
2021/03/30 05:01:42;;;;;;;3.87;3.40;;;;;;;4.32;84.87;101801.34;629510;225;25915;-76
2021/03/30 05:04:10;;;;;;;5.70;3.00;;;;;;;4.10;85.85;101812.56;627673;227;24839;-77
2021/03/30 05:06:38;;;;;;;6.33;3.60;;;;;;;4.11;86.20;101810.38;632983;226;27043;-76
2021/03/30 05:09:07;;;;;;;9.20;3.57;;;;;;;4.33;86.11;101810.73;621368;227;24887;-77
2021/03/30 05:11:34;;;;;;;7.37;3.87;;;;;;;4.48;86.26;101814.78;614914;230;24906;-76
2021/03/30 05:14:02;;;;;;;5.97;4.20;;;;;;;4.38;85.41;101815.27;634005;226;25924;-76
2021/03/30 05:16:30;;;;;;;4.30;3.10;;;;;;;4.30;85.92;101809.59;627319;226;24837;-76
2021/03/30 05:18:58;;;;;;;3.60;3.10;;;;;;;4.37;86.20;101809.73;630648;226;24860;-77
2021/03/30 05:21:26;;;;;;;6.83;3.73;;;;;;;4.29;85.94;101808.75;617254;230;24984;-76
2021/03/30 05:25:21;;;;;;;6.70;3.13;;;;;;;4.25;85.11;101808.96;649490;217;32544;-76
2021/03/30 05:27:49;;;;;;;5.53;3.23;;;;;;;4.23;86.17;101810.77;636463;221;24795;-77
2021/03/30 05:30:18;;;;;;;8.23;3.13;;;;;;;4.31;85.13;101804.38;645614;217;24777;-77
2021/03/30 05:32:46;;;;;;;6.03;2.57;;;;;;;4.24;85.38;101809.86;654333;218;24739;-76
2021/03/30 05:35:14;;;;;;;4.63;2.93;;;;;;;4.16;85.85;101812.30;641718;221;24869;-76
2021/03/30 05:37:42;;;;;;;4.17;3.00;;;;;;;4.34;86.48;101813.70;642951;221;24750;-78
2021/03/30 05:40:11;;;;;;;5.05;3.00;;;;;;;5.03;84.44;101812.33;642853;218;32553;-76
2021/03/30 05:42:39;;;;;;;5.57;3.63;;;;;;;4.88;84.44;101814.77;640688;221;23662;-76
2021/03/30 05:45:09;;;;;;;5.20;3.27;;;;;;;4.94;84.55;101816.63;643655;222;24777;-76
2021/03/30 05:47:37;;;;;;;3.70;2.90;;;;;;;5.12;83.67;101809.79;647449;217;24826;-76
2021/03/30 05:50:10;;;;;;;9.73;4.53;;;;;;;4.86;84.61;101819.16;636358;222;24836;-76
2021/03/30 05:52:44;;;;;;;10.87;5.60;;;;;;;4.86;84.33;101825.60;637208;222;24867;-77
2021/03/30 05:55:12;;;;;;;8.47;3.70;;;;;;;4.85;85.23;101817.03;642333;221;24792;-76
2021/03/30 05:57:40;;;;;;;4.00;3.20;;;;;;;4.58;87.27;101828.56;655791;218;24754;-77
2021/03/30 06:00:09;;;;;;;3.67;3.30;;;;;;;4.65;87.82;101841.58;648904;217;24769;-76
2021/03/30 06:02:37;;;;;;;3.90;3.43;;;;;;;4.78;88.24;101843.97;646340;221;24760;-76
2021/03/30 06:05:06;;;;;;;3.87;3.10;;;;;;;4.89;88.60;101845.62;644371;221;24901;-78
2021/03/30 06:07:36;;;;;;;3.67;2.87;;;;;;;5.12;87.77;101851.05;640988;220;24797;-77
2021/03/30 06:10:06;;;;;;;4.87;3.40;;;;;;;5.33;87.67;101836.31;643678;222;24808;-76
2021/03/30 06:12:34;;;;;;;7.97;3.50;;;;;;;5.37;86.10;101837.88;644744;222;24815;-76
2021/03/30 06:15:02;;;;;;;6.70;2.73;;;;;;;5.47;87.37;101840.83;647492;221;24832;-77
2021/03/30 06:17:30;;;;;;;7.10;3.17;;;;;;;5.73;87.20;101844.31;639713;221;24843;-76
2021/03/30 06:19:58;;;;;;;8.23;4.07;;;;;;;5.85;86.37;101841.14;638513;222;24787;-77
2021/03/30 06:22:26;;;;;;;4.10;3.20;;;;;;;6.10;86.03;101840.81;647785;221;25159;-76
2021/03/30 06:24:54;;;;;;;7.35;3.47;;;;;;;6.89;83.28;101828.11;634282;222;43562;-77
2021/03/30 06:27:27;;;;;;;8.27;3.40;;;;;;;6.60;84.19;101834.81;642984;221;23682;-77
2021/03/30 06:29:55;;;;;;;4.45;3.30;;;;;;;7.13;83.55;101837.61;623300;225;32806;-77
2021/03/30 06:32:23;;;;;;;8.60;3.87;;;;;;;6.85;83.83;101838.25;640687;221;23673;-77
2021/03/30 06:34:53;;;;;;;5.20;3.77;;;;;;;6.72;85.24;101841.09;651581;217;27903;-76
2021/03/30 06:37:28;;;;;;;6.40;3.63;;;;;;;6.87;85.84;101851.09;655378;217;24790;-76
2021/03/30 06:39:56;;;;;;;5.90;4.73;;;;;;;7.19;84.82;101850.70;658909;217;26915;-77
2021/03/30 06:42:31;;;;;;;4.37;3.90;;;;;;;7.24;84.18;101841.75;652569;217;24823;-78
2021/03/30 06:44:56;;;;;;;6.03;4.57;;;;;;;7.28;83.40;101838.53;653806;217;25045;-77
2021/03/30 06:47:24;;;;;;;6.60;4.60;;;;;;;7.68;82.31;101841.05;644981;217;32565;-77
2021/03/30 06:49:53;;;;;;;8.03;4.92;;;;;;;7.92;81.68;101837.53;654002;217;32575;-77
2021/03/30 06:52:20;;;;;;;11.05;5.30;;;;;;;8.06;81.73;101839.33;647949;217;32515;-76
2021/03/30 06:54:52;;;;;;;5.87;5.23;;;;;;;7.93;83.81;101835.31;655383;217;23629;-76
2021/03/30 06:57:37;;;;;;;6.63;4.90;;;;;;;8.02;83.06;101846.42;656429;217;27908;-77
2021/03/30 07:00:08;;;;;;;8.37;5.07;;;;;;;8.21;82.67;101845.75;661640;217;24772;-79
2021/03/30 07:02:37;;;;;;;10.70;5.80;;;;;;;8.33;81.14;101842.91;660413;217;24824;-77
2021/03/30 07:05:07;;;;;;;11.57;6.27;;;;;;;8.27;81.56;101842.79;655595;217;24762;-77
2021/03/30 07:07:35;;;;;;;10.03;5.60;;;;;;;8.31;83.79;101852.54;637571;221;24781;-77
2021/03/30 07:10:03;;;;;;;11.00;5.73;;;;;;;8.53;82.63;101850.36;647768;220;24800;-76
2021/03/30 07:12:30;;;;;;;7.80;5.63;;;;;;;8.54;82.38;101842.11;642018;221;24914;-77
2021/03/30 07:14:58;;;;;;;11.67;6.67;;;;;;;8.79;80.81;101841.48;639243;221;25979;-77
2021/03/30 07:17:28;;;;;;;7.70;5.73;;;;;;;8.83;80.19;101833.87;643957;221;24854;-77
2021/03/30 07:19:56;;;;;;;9.00;5.30;;;;;;;9.30;79.58;101836.13;641563;222;43245;-77
2021/03/30 07:22:24;;;;;;;9.00;5.83;;;;;;;9.17;79.08;101827.45;645701;221;23643;-77
2021/03/30 07:24:54;;;;;;;9.67;5.43;;;;;;;9.31;78.26;101831.30;647057;218;24742;-77
2021/03/30 07:27:24;;;;;;;9.93;5.33;;;;;;;9.45;76.67;101818.28;645940;218;24857;-77
2021/03/30 07:29:52;;;;;;;9.17;5.17;;;;;;;9.60;76.93;101817.76;645012;219;24749;-77
2021/03/30 07:32:21;;;;;;;6.60;5.10;;;;;;;9.78;74.83;101807.92;647037;222;24757;-77
2021/03/30 07:34:51;;;;;;;13.13;6.70;;;;;;;10.00;72.72;101804.75;646813;221;24783;-77
2021/03/30 07:37:19;;;;;;;10.83;4.73;;;;;;;10.00;73.01;101799.09;641436;221;27000;-77
2021/03/30 07:39:47;;;;;;;9.83;4.90;;;;;;;10.11;72.83;101798.34;646655;222;24816;-77
2021/03/30 07:42:16;;;;;;;9.93;5.15;;;;;;;10.44;71.15;101795.28;636374;221;32692;-76
2021/03/30 07:47:17;;;;;;;9.05;4.90;;;;;;;10.82;70.96;101795.67;643683;217;32512;-74
2021/03/30 07:49:47;;;;;;;8.90;5.67;;;;;;;10.84;70.37;101792.49;637104;225;22691;-75
2021/03/30 07:52:17;;;;;;;8.80;5.00;;;;;;;10.89;69.17;101787.81;638799;225;24775;-77
2021/03/30 07:54:56;;;;;;;7.90;4.97;;;;;;;11.20;69.65;101788.59;628780;225;28076;-77
2021/03/30 07:57:45;;;;;;;9.03;5.40;;;;;;;11.49;67.44;101781.73;622624;228;32844;-75
2021/03/30 08:00:16;;;;;;;12.10;5.10;;;;;;;11.38;66.81;101784.29;620275;229;23700;-75
2021/03/30 08:02:46;;;;;;;12.10;5.50;;;;;;;11.61;67.97;101776.94;615637;229;24869;-74
2021/03/30 08:05:13;;;;;;;7.80;5.80;;;;;;;11.62;65.64;101773.38;619290;229;24885;-74
2021/03/30 08:07:49;;;;;;;10.53;5.60;;;;;;;11.87;66.35;101782.37;635439;225;24803;-77
2021/03/30 08:10:24;;;;;;;10.20;6.40;;;;;;;11.92;65.43;101780.72;620861;229;23914;-75
2021/03/30 08:13:10;;;;;;;8.97;6.17;;;;;;;12.06;65.59;101784.42;620256;229;24874;-75
2021/03/30 08:15:44;;;;;;;9.70;6.10;;;;;;;11.93;64.88;101773.73;632003;225;24794;-78
2021/03/30 08:18:11;;;;;;;11.30;7.20;;;;;;;12.47;65.54;101773.44;611093;229;32931;-74
2021/03/30 08:20:52;;;;;;;11.77;7.33;;;;;;;12.43;63.38;101776.41;635809;225;23673;-74
2021/03/30 08:23:21;;;;;;;10.03;7.12;;;;;;;12.99;63.63;101769.34;618354;229;33362;-74
2021/03/30 08:25:52;;;;;;;14.30;7.20;;;;;;;13.17;62.20;101760.98;629869;225;32674;-74
2021/03/30 08:28:43;;;;;;;14.07;7.30;;;;;;;13.17;62.81;101753.14;636726;225;24824;-75
2021/03/30 08:31:10;;;;;;;17.53;6.30;;;;;;;13.19;61.46;101759.10;635379;223;24837;-74
2021/03/30 08:33:38;;;;;;;11.37;7.17;;;;;;;13.30;61.62;101748.62;616062;229;23867;-73
2021/03/30 08:36:21;;;;;;;15.17;7.40;;;;;;;13.51;62.06;101752.11;626142;225;24859;-74
2021/03/30 08:38:49;;;;;;;12.50;7.30;;;;;;;13.70;61.20;101746.17;625694;225;25086;-74
2021/03/30 08:41:28;;;;;;;13.17;6.67;;;;;;;13.74;60.49;101751.97;630904;225;24830;-74
2021/03/30 08:44:11;;;;;;;11.20;6.60;;;;;;;13.81;61.88;101753.13;625374;229;23903;-74
2021/03/30 08:46:38;;;;;;;13.23;6.60;;;;;;;13.99;61.30;101753.38;636899;225;24782;-74
2021/03/30 08:49:19;;;;;;;12.63;6.00;;;;;;;13.97;60.40;101749.58;620737;229;23997;-74
2021/03/30 08:51:47;;;;;;;9.25;6.55;;;;;;;14.45;59.50;101749.81;630083;225;32981;-74
2021/03/30 08:54:15;;;;;;;11.03;6.10;;;;;;;14.52;58.47;101745.73;635378;225;22802;-74
2021/03/30 08:56:44;;;;;;;12.60;6.10;;;;;;;14.57;57.38;101736.16;618397;229;23962;-74
2021/03/30 08:59:11;;;;;;;8.30;6.73;;;;;;;14.98;58.34;101735.63;620876;227;32845;-74
2021/03/30 09:01:40;;;;;;;10.95;7.40;;;;;;;15.12;58.41;101737.84;631741;225;33863;-74
2021/03/30 09:04:10;;;;;;;9.97;6.80;;;;;;;15.19;58.09;101736.31;623220;228;35095;-74
2021/03/30 09:06:37;;;;;;;9.53;6.42;;;;;;;15.33;57.64;101744.25;622231;228;33134;-74
2021/03/30 09:09:03;;;;;;;9.57;6.73;;;;;;;15.27;57.47;101740.39;629625;228;23714;-74
2021/03/30 09:11:36;;;;;;;10.93;7.40;;;;;;;15.10;56.00;101734.05;628011;227;24838;-74
2021/03/30 09:14:01;;;;;;;8.73;6.23;;;;;;;15.28;57.37;101731.56;626819;225;24854;-74
2021/03/30 09:16:29;;;;;;;7.37;5.83;;;;;;;15.35;56.37;101732.68;634033;225;23848;-74
2021/03/30 09:19:07;;;;;;;9.80;6.03;;;;;;;15.38;55.24;101726.33;620564;229;23862;-74
2021/03/30 09:21:35;;;;;;;7.93;6.60;;;;;;;15.49;54.19;101717.48;618406;230;24878;-74
2021/03/30 09:24:08;;;;;;;9.03;6.73;;;;;;;15.99;55.02;101711.03;616859;230;23881;-74
2021/03/30 09:26:36;;;;;;;10.50;6.67;;;;;;;16.12;54.62;101706.78;635919;224;24886;-74
2021/03/30 09:28:59;;;;;;;10.87;7.30;;;;;;;16.29;56.12;101715.20;628100;225;24099;-74
2021/03/30 09:31:27;;;;;;;10.53;6.60;;;;;;;16.46;55.18;101708.33;622455;230;27077;-74
2021/03/30 09:33:57;;;;;;;9.50;6.60;;;;;;;16.92;55.14;101706.58;634002;225;24875;-74
2021/03/30 09:36:24;;;;;;;10.20;6.13;;;;;;;16.91;51.30;101693.09;633751;225;24907;-74
2021/03/30 09:38:52;;;;;;;12.30;7.12;;;;;;;17.38;50.93;101691.02;616066;230;33007;-73
2021/03/30 09:41:36;;;;;;;9.37;5.57;;;;;;;17.26;50.88;101684.84;637116;225;24856;-74
2021/03/30 09:44:04;;;;;;;10.13;6.60;;;;;;;17.19;52.68;101692.53;633273;225;31245;-74
2021/03/30 09:46:32;;;;;;;11.60;5.70;;;;;;;17.26;51.00;101684.84;632477;225;23852;-74
2021/03/30 09:49:00;;;;;;;13.97;5.70;;;;;;;17.28;50.87;101685.51;633845;225;24880;-74
2021/03/30 09:51:28;;;;;;;11.30;6.53;;;;;;;17.93;49.87;101680.71;632881;224;32779;-74
2021/03/30 09:53:56;;;;;;;10.30;6.27;;;;;;;18.04;49.24;101678.63;636563;223;24853;-74
2021/03/30 09:56:24;;;;;;;10.13;6.17;;;;;;;18.51;50.37;101687.84;614839;229;33068;-73
2021/03/30 09:58:56;;;;;;;11.90;6.03;;;;;;;18.25;48.86;101668.17;621118;230;23740;-74
2021/03/30 10:01:24;;;;;;;10.93;5.77;;;;;;;18.19;49.83;101667.50;636127;224;23874;-74
2021/03/30 10:03:52;;;;;;;9.20;5.63;;;;;;;18.45;51.46;101667.42;635962;222;24868;-75
2021/03/30 10:06:20;;;;;;;9.37;5.20;;;;;;;18.39;49.00;101667.06;637082;225;24906;-75
2021/03/30 10:08:48;;;;;;;10.90;5.70;;;;;;;18.52;49.63;101667.09;639694;222;24192;-74
2021/03/30 10:11:26;;;;;;;8.37;5.23;;;;;;;18.53;50.14;101660.84;622545;229;23956;-74
2021/03/30 10:13:54;;;;;;;13.73;5.70;;;;;;;18.69;50.20;101664.85;617818;229;24882;-74
2021/03/30 10:16:22;;;;;;;11.60;5.83;;;;;;;18.95;50.08;101662.91;620083;229;24879;-76
2021/03/30 10:18:50;;;;;;;8.63;5.90;;;;;;;18.98;47.71;101658.61;615436;229;33380;-75
2021/03/30 10:21:19;;;;;;;7.03;4.90;;;;;;;19.35;49.49;101657.30;616129;229;22731;-74
2021/03/30 10:23:47;;;;;;;7.00;5.00;;;;;;;19.30;47.25;101653.02;621518;229;23882;-74
2021/03/30 10:26:15;;;;;;;11.73;5.53;;;;;;;19.54;49.59;101651.67;636176;222;24856;-75
2021/03/30 10:28:43;;;;;;;11.53;5.80;;;;;;;19.59;49.76;101658.28;625284;229;23889;-76
2021/03/30 10:31:14;;;;;;;11.77;5.97;;;;;;;19.52;47.81;101657.59;618956;229;23971;-75
2021/03/30 10:33:40;;;;;;;10.37;5.00;;;;;;;19.37;46.40;101643.43;634079;225;24851;-75
2021/03/30 10:36:09;;;;;;;13.55;5.85;;;;;;;19.97;49.49;101648.23;615495;229;43725;-76
2021/03/30 10:38:35;;;;;;;12.43;5.60;;;;;;;19.93;46.06;101639.02;638544;221;22774;-76
2021/03/30 10:41:05;;;;;;;11.03;5.97;;;;;;;20.13;47.49;101636.80;615736;230;24858;-75
2021/03/30 10:43:32;;;;;;;9.43;5.90;;;;;;;20.06;47.79;101631.37;616494;230;23905;-74
2021/03/30 10:46:00;;;;;;;10.70;5.13;;;;;;;20.01;47.47;101633.72;620051;226;24943;-75
2021/03/30 10:48:28;;;;;;;13.53;5.90;;;;;;;20.08;47.09;101628.55;635785;225;24880;-74
2021/03/30 10:50:56;;;;;;;9.25;5.47;;;;;;;20.45;45.32;101619.97;630682;225;32980;-74
2021/03/30 10:53:24;;;;;;;10.60;5.10;;;;;;;20.55;47.45;101621.89;637578;225;22790;-74
2021/03/30 10:55:52;;;;;;;8.33;5.10;;;;;;;20.45;46.54;101616.00;638212;221;23858;-74
2021/03/30 10:58:20;;;;;;;9.53;4.53;;;;;;;20.56;47.14;101620.06;628061;225;23851;-74
2021/03/30 11:00:48;;;;;;;11.00;4.93;;;;;;;20.62;47.56;101628.60;618169;229;23888;-75
2021/03/30 11:03:16;;;;;;;6.67;4.73;;;;;;;20.40;47.62;101615.15;616514;229;23894;-75
2021/03/30 11:05:44;;;;;;;7.40;4.47;;;;;;;20.38;46.51;101611.86;629060;225;23813;-74
2021/03/30 11:08:12;;;;;;;10.00;4.27;;;;;;;20.46;44.08;101599.14;631309;225;27008;-74
2021/03/30 11:10:40;;;;;;;5.40;4.23;;;;;;;20.46;45.67;101600.46;637637;225;23872;-74
2021/03/30 11:13:07;;;;;;;7.63;4.50;;;;;;;20.49;46.85;101597.46;634589;225;25941;-74
2021/03/30 11:15:35;;;;;;;15.67;4.80;;;;;;;20.68;45.72;101595.65;635974;225;24858;-74
2021/03/30 11:18:03;;;;;;;12.13;5.30;;;;;;;20.88;44.83;101585.42;630789;225;32885;-74
2021/03/30 11:20:31;;;;;;;7.97;4.60;;;;;;;20.90;46.68;101587.89;629845;225;23702;-74
2021/03/30 11:23:00;;;;;;;12.40;5.07;;;;;;;21.00;45.57;101572.09;633603;225;28026;-74
2021/03/30 11:25:27;;;;;;;8.13;4.33;;;;;;;21.02;42.98;101570.58;631324;225;23871;-75
2021/03/30 11:27:58;;;;;;;8.50;4.83;;;;;;;21.12;43.86;101572.98;638049;225;23869;-74
2021/03/30 11:30:30;;;;;;;8.97;4.23;;;;;;;21.21;43.47;101562.11;637264;223;24865;-75
2021/03/30 11:33:01;;;;;;;9.43;4.33;;;;;;;21.24;43.89;101560.41;638696;224;23966;-74
2021/03/30 11:35:24;;;;;;;9.70;3.97;;;;;;;21.38;44.39;101556.16;619448;229;24880;-74
2021/03/30 11:37:54;;;;;;;5.70;3.60;;;;;;;21.54;43.88;101562.61;635667;225;23820;-75
2021/03/30 11:40:20;;;;;;;7.80;4.10;;;;;;;21.68;43.32;101557.45;637989;224;23808;-75
2021/03/30 11:42:47;;;;;;;8.47;4.80;;;;;;;21.63;45.23;101551.40;638081;224;26950;-74